createdAt,value
2023-05-19T00:00:00.578Z,27.81
2023-05-19T00:02:34.194Z,27.80
2023-05-19T00:05:05.373Z,27.77
2023-05-19T00:07:41.597Z,27.78
2023-05-19T00:10:13.522Z,27.76
2023-05-19T00:12:45.462Z,27.78
2023-05-19T00:15:16.882Z,27.81
2023-05-19T00:17:47.477Z,27.83
2023-05-19T00:20:18.070Z,27.84
2023-05-19T00:22:51.568Z,27.86
2023-05-19T00:25:21.746Z,27.85
2023-05-19T00:27:52.030Z,27.83
2023-05-19T00:30:23.296Z,27.82
2023-05-19T00:32:54.312Z,27.80
2023-05-19T00:35:25.970Z,27.83
2023-05-19T00:37:57.795Z,27.85
2023-05-19T00:40:29.856Z,27.83
2023-05-19T00:43:00.592Z,27.81
2023-05-19T00:45:31.739Z,27.79
2023-05-19T00:48:02.006Z,27.76
2023-05-19T00:50:33.081Z,27.74
2023-05-19T00:53:05.585Z,27.72
2023-05-19T00:55:40.944Z,27.70
2023-05-19T00:58:14.854Z,27.69
2023-05-19T01:00:46.121Z,27.68
2023-05-19T01:03:21.013Z,27.69
2023-05-19T01:05:53.956Z,27.69
2023-05-19T01:11:11.236Z,27.65
2023-05-19T01:13:42.298Z,27.62
2023-05-19T01:16:20.993Z,27.62
2023-05-19T01:19:04.283Z,27.58
2023-05-19T01:22:24.151Z,27.53
2023-05-19T01:25:40.369Z,27.52
2023-05-19T01:28:51.567Z,27.49
2023-05-19T01:31:51.598Z,27.46
2023-05-19T01:34:26.009Z,27.44
2023-05-19T01:37:00.281Z,27.41
2023-05-19T01:39:31.849Z,27.40
2023-05-19T01:42:04.327Z,27.40
2023-05-19T01:44:36.096Z,27.39
2023-05-19T01:47:09.283Z,27.37
2023-05-19T01:49:39.469Z,27.30
2023-05-19T01:52:10.610Z,27.26
2023-05-19T01:54:40.882Z,27.25
2023-05-19T01:57:22.652Z,27.25
2023-05-19T02:00:08.258Z,27.24
2023-05-19T02:02:58.208Z,27.23
2023-05-19T02:05:40.653Z,27.23
2023-05-19T02:08:22.302Z,27.21
2023-05-19T02:10:59.850Z,27.20
2023-05-19T02:13:39.118Z,27.18
2023-05-19T02:16:10.293Z,27.16
2023-05-19T02:18:45.872Z,27.11
2023-05-19T02:21:16.637Z,27.06
2023-05-19T02:23:46.893Z,27.01
2023-05-19T02:26:16.968Z,26.99
2023-05-19T02:28:47.227Z,26.96
2023-05-19T02:31:17.044Z,26.94
2023-05-19T02:33:48.957Z,26.92
2023-05-19T02:36:19.678Z,26.91
2023-05-19T02:38:50.002Z,26.89
2023-05-19T02:41:20.393Z,26.87
2023-05-19T02:43:50.651Z,26.81
2023-05-19T02:46:20.973Z,26.74
2023-05-19T02:48:55.016Z,26.68
2023-05-19T02:51:25.326Z,26.64
2023-05-19T02:53:55.326Z,26.58
2023-05-19T02:56:25.317Z,26.56
2023-05-19T02:58:55.722Z,26.56
2023-05-19T03:01:25.687Z,26.56
2023-05-19T03:03:58.289Z,26.55
2023-05-19T03:06:28.743Z,26.53
2023-05-19T03:08:59.005Z,26.54
2023-05-19T03:11:30.058Z,26.55
2023-05-19T03:14:01.287Z,26.56
2023-05-19T03:16:31.030Z,26.57
2023-05-19T03:19:03.520Z,26.59
2023-05-19T03:21:35.115Z,26.60
2023-05-19T03:24:04.920Z,26.63
2023-05-19T03:26:35.082Z,26.64
2023-05-19T03:29:04.816Z,26.63
2023-05-19T03:31:35.256Z,26.62
2023-05-19T03:34:07.083Z,26.62
2023-05-19T03:36:40.005Z,26.63
2023-05-19T03:39:10.576Z,26.62
2023-05-19T03:41:40.610Z,26.63
2023-05-19T03:44:11.016Z,26.62
2023-05-19T03:46:41.057Z,26.63
2023-05-19T03:49:14.290Z,26.65
2023-05-19T03:51:44.719Z,26.64
2023-05-19T03:54:14.832Z,26.63
2023-05-19T03:56:47.678Z,26.64
2023-05-19T03:59:17.981Z,26.65
2023-05-19T04:01:48.227Z,26.67
2023-05-19T04:04:20.406Z,26.69
2023-05-19T04:06:51.137Z,26.71
2023-05-19T04:09:24.455Z,26.72
2023-05-19T04:11:57.760Z,26.73
2023-05-19T04:14:27.854Z,26.73
2023-05-19T04:16:58.289Z,26.73
2023-05-19T04:19:30.983Z,26.76
2023-05-19T04:22:01.587Z,26.76
2023-05-19T04:24:31.778Z,26.74
2023-05-19T04:27:05.170Z,26.74
2023-05-19T04:29:36.417Z,26.74
2023-05-19T04:32:08.383Z,26.71
2023-05-19T04:34:45.568Z,26.71
2023-05-19T04:38:01.582Z,26.70
2023-05-19T04:40:32.548Z,26.68
2023-05-19T04:43:10.631Z,26.68
2023-05-19T04:45:48.135Z,26.71
2023-05-19T04:48:22.081Z,26.72
2023-05-19T04:50:57.222Z,26.74
2023-05-19T04:57:09.131Z,26.69
2023-05-19T04:59:39.235Z,26.68
2023-05-19T05:02:10.270Z,26.68
2023-05-19T05:04:43.950Z,26.69
2023-05-19T05:07:23.545Z,26.73
2023-05-19T05:09:53.900Z,26.76
2023-05-19T05:12:25.670Z,26.80
2023-05-19T05:14:56.521Z,26.81
2023-05-19T05:17:27.858Z,26.83
2023-05-19T05:19:58.557Z,26.84
2023-05-19T05:22:32.401Z,26.86
2023-05-19T05:25:04.269Z,26.88
2023-05-19T05:27:35.049Z,26.90
2023-05-19T05:30:05.662Z,26.90
2023-05-19T05:32:35.463Z,26.94
2023-05-19T05:35:06.022Z,26.96
2023-05-19T05:37:38.317Z,26.99
2023-05-19T05:40:10.391Z,27.03
2023-05-19T05:42:40.621Z,27.06
2023-05-19T05:45:11.825Z,27.09
2023-05-19T05:47:43.015Z,27.13
2023-05-19T05:50:14.608Z,27.17
2023-05-19T05:52:50.232Z,27.18
2023-05-19T05:55:21.881Z,27.19
2023-05-19T05:57:53.746Z,27.22
2023-05-19T06:00:25.592Z,27.23
2023-05-19T06:02:56.515Z,27.24
2023-05-19T06:05:26.872Z,27.23
2023-05-19T06:07:59.296Z,27.25
2023-05-19T06:10:30.618Z,27.25
2023-05-19T06:13:01.737Z,27.26
2023-05-19T06:15:31.445Z,27.27
2023-05-19T06:18:02.346Z,27.30
2023-05-19T06:20:32.962Z,27.35
2023-05-19T06:23:06.652Z,27.40
2023-05-19T06:25:37.068Z,27.48
2023-05-19T06:28:07.311Z,27.54
2023-05-19T06:30:39.611Z,27.62
2023-05-19T06:33:10.012Z,27.71
2023-05-19T06:35:40.372Z,27.79
2023-05-19T06:38:12.996Z,27.88
2023-05-19T06:40:44.095Z,27.96
2023-05-19T06:43:13.941Z,28.01
2023-05-19T06:45:43.968Z,28.06
2023-05-19T06:48:14.038Z,28.13
2023-05-19T06:50:44.364Z,28.22
2023-05-19T06:53:16.878Z,28.30
2023-05-19T06:55:57.892Z,28.40
2023-05-19T06:58:29.704Z,28.48
2023-05-19T07:00:59.718Z,28.56
2023-05-19T07:03:31.440Z,28.64
2023-05-19T07:06:02.227Z,28.72
2023-05-19T07:08:35.090Z,28.80
2023-05-19T07:11:05.481Z,28.86
2023-05-19T07:13:35.923Z,28.89
2023-05-19T07:16:06.719Z,28.93
2023-05-19T07:18:36.999Z,28.97
2023-05-19T07:21:07.957Z,29.02
2023-05-19T07:23:40.692Z,29.08
2023-05-19T07:26:11.332Z,29.14
2023-05-19T07:28:42.981Z,29.21
2023-05-19T07:31:13.826Z,29.26
2023-05-19T07:33:44.240Z,29.32
2023-05-19T07:36:14.699Z,29.37
2023-05-19T07:38:47.522Z,29.39
2023-05-19T07:41:17.662Z,29.41
2023-05-19T07:43:48.011Z,29.45
2023-05-19T07:46:18.705Z,29.48
2023-05-19T07:48:49.194Z,29.55
2023-05-19T07:51:19.826Z,29.58
2023-05-19T07:53:52.257Z,29.62
2023-05-19T07:56:23.286Z,29.64
2023-05-19T07:58:52.900Z,29.64
2023-05-19T08:01:23.481Z,29.67
2023-05-19T08:03:53.823Z,29.71
2023-05-19T08:06:25.640Z,29.75
2023-05-19T08:08:58.646Z,29.79
2023-05-19T08:11:29.335Z,29.83
2023-05-19T08:14:06.398Z,29.86
2023-05-19T08:16:36.331Z,29.88
2023-05-19T08:19:07.980Z,29.92
2023-05-19T08:21:38.658Z,29.96
2023-05-19T08:24:12.084Z,30.00
2023-05-19T08:26:42.411Z,30.02
2023-05-19T08:29:13.295Z,30.04
2023-05-19T08:31:43.805Z,30.07
2023-05-19T08:34:14.090Z,30.10
2023-05-19T08:36:45.783Z,30.14
2023-05-19T08:39:20.201Z,30.17
2023-05-19T08:41:50.188Z,30.19
2023-05-19T08:44:20.057Z,30.22
2023-05-19T08:46:53.456Z,30.27
2023-05-19T08:49:30.435Z,30.30
2023-05-19T08:52:17.528Z,30.32
2023-05-19T08:54:57.168Z,30.34
2023-05-19T08:57:30.125Z,30.36
2023-05-19T09:00:01.888Z,30.39
2023-05-19T09:02:32.535Z,30.41
2023-05-19T09:05:03.563Z,30.42
2023-05-19T09:07:35.246Z,30.42
2023-05-19T09:10:09.886Z,30.42
2023-05-19T09:12:40.061Z,30.41
2023-05-19T09:15:12.655Z,30.41
2023-05-19T09:17:45.552Z,30.40
2023-05-19T09:20:17.374Z,30.40
2023-05-19T09:22:50.009Z,30.41
2023-05-19T09:25:26.946Z,30.42
2023-05-19T09:27:59.017Z,30.43
2023-05-19T09:30:29.329Z,30.46
2023-05-19T09:32:59.616Z,30.51
2023-05-19T09:35:30.104Z,30.54
2023-05-19T09:38:00.417Z,30.59
2023-05-19T09:40:35.735Z,30.62
2023-05-19T09:43:11.541Z,30.65
2023-05-19T09:45:42.012Z,30.68
2023-05-19T09:48:14.151Z,30.68
2023-05-19T09:50:48.395Z,30.71
2023-05-19T09:53:20.886Z,30.72
2023-05-19T09:55:57.988Z,30.73
2023-05-19T09:58:28.946Z,30.75
2023-05-19T10:00:59.518Z,30.76
2023-05-19T10:03:31.194Z,30.78
2023-05-19T10:06:02.946Z,30.78
2023-05-19T10:08:33.486Z,30.79
2023-05-19T10:11:06.708Z,30.78
2023-05-19T10:13:41.621Z,30.79
2023-05-19T10:16:13.026Z,30.80
2023-05-19T10:18:44.472Z,30.81
2023-05-19T10:21:17.093Z,30.81
2023-05-19T10:23:48.055Z,30.80
2023-05-19T10:26:22.057Z,30.81
2023-05-19T10:28:53.532Z,30.80
2023-05-19T10:31:26.607Z,30.80
2023-05-19T10:34:23.755Z,30.79
2023-05-19T10:37:10.772Z,30.76
2023-05-19T10:39:46.842Z,30.75
2023-05-19T10:42:38.836Z,30.76
2023-05-19T10:45:20.832Z,30.75
2023-05-19T10:47:52.868Z,30.76
2023-05-19T10:50:23.591Z,30.75
2023-05-19T10:53:01.446Z,30.77
2023-05-19T10:55:55.037Z,30.75
2023-05-19T10:59:00.275Z,30.75
2023-05-19T11:01:43.847Z,30.75
2023-05-19T11:04:19.732Z,30.74
2023-05-19T11:06:55.347Z,30.73
2023-05-19T11:09:37.947Z,30.71
2023-05-19T11:12:14.113Z,30.69
2023-05-19T11:14:51.264Z,30.69
2023-05-19T11:17:26.244Z,30.70
2023-05-19T11:20:05.070Z,30.70
2023-05-19T11:22:43.589Z,30.70
2023-05-19T11:25:18.441Z,30.68
2023-05-19T11:27:54.711Z,30.67
2023-05-19T11:30:32.783Z,30.66
2023-05-19T11:33:04.437Z,30.67
2023-05-19T11:35:39.827Z,30.65
2023-05-19T11:38:13.223Z,30.65
2023-05-19T11:40:50.372Z,30.67
2023-05-19T11:43:21.515Z,30.68
2023-05-19T11:45:59.861Z,30.69
2023-05-19T11:48:34.073Z,30.69
2023-05-19T11:51:08.588Z,30.67
2023-05-19T11:53:42.471Z,30.66
2023-05-19T11:56:17.453Z,30.66
2023-05-19T11:58:50.993Z,30.64
2023-05-19T12:01:33.427Z,30.65
2023-05-19T12:04:04.383Z,30.62
2023-05-19T12:06:35.091Z,30.59
2023-05-19T12:09:10.868Z,30.58
2023-05-19T12:11:42.117Z,30.56
2023-05-19T12:14:15.222Z,30.53
2023-05-19T12:16:49.068Z,30.53
2023-05-19T12:19:20.697Z,30.50
2023-05-19T12:21:52.003Z,30.46
2023-05-19T12:24:26.835Z,30.45
2023-05-19T12:27:09.664Z,30.44
2023-05-19T12:29:41.558Z,30.42
2023-05-19T12:32:14.820Z,30.42
2023-05-19T12:34:44.894Z,30.40
2023-05-19T12:37:14.866Z,30.40
2023-05-19T12:39:46.873Z,30.40
2023-05-19T12:42:19.585Z,30.39
2023-05-19T12:44:52.139Z,30.39
2023-05-19T12:47:23.571Z,30.37
2023-05-19T12:49:58.855Z,30.35
2023-05-19T12:52:31.726Z,30.33
2023-05-19T12:55:03.003Z,30.31
2023-05-19T12:57:34.268Z,30.29
2023-05-19T13:00:08.928Z,30.28
2023-05-19T13:03:02.153Z,30.28
2023-05-19T13:05:35.586Z,30.28
2023-05-19T13:08:10.593Z,30.28
2023-05-19T13:10:44.071Z,30.27
2023-05-19T13:13:19.937Z,30.25
2023-05-19T13:15:51.137Z,30.24
2023-05-19T13:18:23.881Z,30.23
2023-05-19T13:20:55.296Z,30.24
2023-05-19T13:23:26.794Z,30.22
2023-05-19T13:25:57.298Z,30.21
2023-05-19T13:28:28.172Z,30.19
2023-05-19T13:30:59.922Z,30.18
2023-05-19T13:33:31.922Z,30.18
2023-05-19T13:36:01.707Z,30.16
2023-05-19T13:38:32.032Z,30.15
2023-05-19T13:41:02.508Z,30.12
2023-05-19T13:43:33.257Z,30.12
2023-05-19T13:46:03.640Z,30.09
2023-05-19T13:48:36.504Z,30.08
2023-05-19T13:51:07.286Z,30.04
2023-05-19T13:53:37.820Z,30.03
2023-05-19T13:56:10.035Z,30.01
2023-05-19T13:58:40.139Z,29.96
2023-05-19T14:01:10.702Z,29.93
2023-05-19T14:03:43.513Z,29.90
2023-05-19T14:06:14.143Z,29.89
2023-05-19T14:08:44.491Z,29.88
2023-05-19T14:11:22.057Z,29.89
2023-05-19T14:13:53.084Z,29.90
2023-05-19T14:16:26.889Z,29.91
2023-05-19T14:18:59.597Z,29.93
2023-05-19T14:21:30.190Z,29.94
2023-05-19T14:24:00.228Z,29.94
2023-05-19T14:26:30.819Z,29.94
2023-05-19T14:31:32.676Z,29.94
2023-05-19T14:34:18.238Z,29.94
2023-05-19T14:36:48.952Z,29.91
2023-05-19T14:39:21.535Z,29.90
2023-05-19T14:41:53.325Z,29.88
2023-05-19T14:44:23.940Z,29.85
2023-05-19T14:46:53.932Z,29.86
2023-05-19T14:49:26.483Z,29.85
2023-05-19T14:51:56.967Z,29.85
2023-05-19T14:54:27.445Z,29.83
2023-05-19T14:56:57.920Z,29.83
2023-05-19T14:59:28.398Z,29.83
2023-05-19T15:01:59.166Z,29.83
2023-05-19T15:04:30.639Z,29.83
2023-05-19T15:09:34.548Z,29.80
2023-05-19T15:12:04.405Z,29.79
2023-05-19T15:14:34.429Z,29.78
2023-05-19T15:17:04.810Z,29.76
2023-05-19T15:19:36.758Z,29.75
2023-05-19T15:22:07.938Z,29.75
2023-05-19T15:24:39.474Z,29.73
2023-05-19T15:27:11.088Z,29.73
2023-05-19T15:29:41.439Z,29.71
2023-05-19T15:32:12.602Z,29.71
2023-05-19T15:34:44.901Z,29.70
2023-05-19T15:37:15.564Z,29.67
2023-05-19T15:39:45.503Z,29.65
2023-05-19T15:42:16.188Z,29.62
2023-05-19T15:44:47.353Z,29.59
2023-05-19T15:47:17.403Z,29.58
2023-05-19T15:49:49.853Z,29.56
2023-05-19T15:52:19.794Z,29.54
2023-05-19T15:54:57.915Z,29.51
2023-05-19T15:57:34.195Z,29.44
2023-05-19T16:00:05.090Z,29.39
2023-05-19T16:02:36.337Z,29.37
2023-05-19T16:05:12.200Z,29.37
2023-05-19T16:07:43.078Z,29.34
2023-05-19T16:10:14.272Z,29.31
2023-05-19T16:12:46.036Z,29.32
2023-05-19T16:15:17.126Z,29.30
2023-05-19T16:17:47.360Z,29.30
2023-05-19T16:20:21.978Z,29.25
2023-05-19T16:22:54.707Z,29.22
2023-05-19T16:25:26.011Z,29.20
2023-05-19T16:27:58.474Z,29.18
2023-05-19T16:30:32.164Z,29.16
2023-05-19T16:33:08.389Z,29.15
2023-05-19T16:35:42.646Z,29.14
2023-05-19T16:38:16.270Z,29.11
2023-05-19T16:40:50.823Z,29.09
2023-05-19T16:43:21.952Z,29.08
2023-05-19T16:45:54.619Z,29.08
2023-05-19T16:48:26.124Z,29.09
2023-05-19T16:50:58.523Z,29.10
2023-05-19T16:53:31.559Z,29.09
2023-05-19T16:56:02.410Z,29.09
2023-05-19T16:58:32.143Z,29.09
2023-05-19T17:01:02.387Z,29.09
2023-05-19T17:03:33.519Z,29.07
2023-05-19T17:06:06.522Z,29.07
2023-05-19T17:08:36.611Z,29.07
2023-05-19T17:11:07.188Z,29.07
2023-05-19T17:13:37.922Z,29.06
2023-05-19T17:16:11.137Z,29.06
2023-05-19T17:18:42.842Z,29.05
2023-05-19T17:21:18.232Z,29.05
2023-05-19T17:23:50.245Z,29.03
2023-05-19T17:26:20.109Z,29.03
2023-05-19T17:28:50.069Z,29.03
2023-05-19T17:31:20.966Z,29.01
2023-05-19T17:33:50.988Z,28.99
2023-05-19T17:36:23.316Z,28.99
2023-05-19T17:38:56.932Z,28.99
2023-05-19T17:41:30.977Z,28.97
2023-05-19T17:44:12.781Z,28.96
2023-05-19T17:46:43.732Z,28.95
2023-05-19T17:49:17.511Z,28.94
2023-05-19T17:51:51.035Z,28.93
2023-05-19T17:54:25.032Z,28.92
2023-05-19T17:57:02.176Z,28.91
2023-05-19T17:59:35.510Z,28.89
2023-05-19T18:02:07.677Z,28.88
2023-05-19T18:04:42.728Z,28.88
2023-05-19T18:07:23.256Z,28.88
2023-05-19T18:10:01.410Z,28.88
2023-05-19T18:12:39.006Z,28.86
2023-05-19T18:15:21.945Z,28.85
2023-05-19T18:18:06.930Z,28.84
2023-05-19T18:20:46.548Z,28.83
2023-05-19T18:23:26.863Z,28.83
2023-05-19T18:26:01.993Z,28.83
2023-05-19T18:28:35.960Z,28.82
2023-05-19T18:31:17.115Z,28.82
2023-05-19T18:33:52.250Z,28.81
2023-05-19T18:36:25.951Z,28.81
2023-05-19T18:39:04.339Z,28.81
2023-05-19T18:41:45.997Z,28.79
2023-05-19T18:44:19.683Z,28.78
2023-05-19T18:46:53.490Z,28.78
2023-05-19T18:49:28.462Z,28.77
2023-05-19T18:52:03.568Z,28.76
2023-05-19T18:54:40.860Z,28.75
2023-05-19T18:57:13.274Z,28.73
2023-05-19T18:59:48.063Z,28.73
2023-05-19T19:02:23.149Z,28.72
2023-05-19T19:05:11.001Z,28.71
2023-05-19T19:07:52.906Z,28.66
2023-05-19T19:10:43.682Z,28.64
2023-05-19T19:13:15.280Z,28.63
2023-05-19T19:15:54.131Z,28.63
2023-05-19T19:18:33.176Z,28.61
2023-05-19T19:21:06.671Z,28.61
2023-05-19T19:23:48.461Z,28.61
2023-05-19T19:26:23.671Z,28.62
2023-05-19T19:28:56.766Z,28.61
2023-05-19T19:31:34.580Z,28.62
2023-05-19T19:34:12.004Z,28.62
2023-05-19T19:36:48.862Z,28.62
2023-05-19T19:39:23.336Z,28.61
2023-05-19T19:42:01.651Z,28.61
2023-05-19T19:44:35.180Z,28.60
2023-05-19T19:47:09.848Z,28.60
2023-05-19T19:49:46.761Z,28.60
2023-05-19T19:52:20.735Z,28.59
2023-05-19T19:54:55.179Z,28.59
2023-05-19T19:57:38.049Z,28.58
2023-05-19T20:00:22.336Z,28.57
2023-05-19T20:05:38.222Z,28.57
2023-05-19T20:08:09.730Z,28.55
2023-05-19T20:10:47.044Z,28.52
2023-05-19T20:13:29.524Z,28.47
2023-05-19T20:16:02.226Z,28.43
2023-05-19T20:18:36.605Z,28.43
2023-05-19T20:21:12.970Z,28.41
2023-05-19T20:23:48.095Z,28.40
2023-05-19T20:26:21.110Z,28.37
2023-05-19T20:29:08.388Z,28.33
2023-05-19T20:31:43.256Z,28.26
2023-05-19T20:34:23.670Z,28.20
2023-05-19T20:36:59.864Z,28.18
2023-05-19T20:39:32.530Z,28.17
2023-05-19T20:42:07.265Z,28.17
2023-05-19T20:44:43.986Z,28.16
2023-05-19T20:47:21.296Z,28.16
2023-05-19T20:49:55.200Z,28.16
2023-05-19T20:52:34.630Z,28.15
2023-05-19T20:55:07.363Z,28.12
2023-05-19T20:57:41.505Z,28.10
2023-05-19T21:00:25.992Z,28.09
2023-05-19T21:03:00.620Z,28.09
2023-05-19T21:05:32.602Z,28.08
2023-05-19T21:08:04.355Z,28.07
2023-05-19T21:10:35.463Z,28.09
2023-05-19T21:13:08.323Z,28.10
2023-05-19T21:15:41.508Z,28.10
2023-05-19T21:18:13.448Z,28.07
2023-05-19T21:20:43.741Z,28.03
2023-05-19T21:23:14.093Z,28.03
2023-05-19T21:25:45.554Z,28.01
2023-05-19T21:28:16.716Z,28.01
2023-05-19T21:30:54.395Z,28.01
2023-05-19T21:33:25.205Z,27.97
2023-05-19T21:35:56.252Z,27.98
2023-05-19T21:38:27.978Z,27.96
2023-05-19T21:40:59.478Z,27.93
2023-05-19T21:43:29.930Z,27.92
2023-05-19T21:46:02.680Z,27.91
2023-05-19T21:48:33.574Z,27.89
2023-05-19T21:51:06.239Z,27.88
2023-05-19T21:53:40.797Z,27.88
2023-05-19T21:56:13.601Z,27.88
2023-05-19T21:58:46.156Z,27.88
2023-05-19T22:01:22.016Z,27.90
2023-05-19T22:03:52.945Z,27.90
2023-05-19T22:06:24.599Z,27.86
2023-05-19T22:08:59.634Z,27.86
2023-05-19T22:11:34.173Z,27.85
2023-05-19T22:14:05.173Z,27.82
2023-05-19T22:16:40.907Z,27.80
2023-05-19T22:19:18.095Z,27.80
2023-05-19T22:21:58.402Z,27.76
2023-05-19T22:24:33.037Z,27.76
2023-05-19T22:27:02.964Z,27.77
2023-05-19T22:29:33.444Z,27.77
2023-05-19T22:32:08.318Z,27.80
2023-05-19T22:34:38.212Z,27.77
2023-05-19T22:37:09.585Z,27.77
2023-05-19T22:39:41.726Z,27.77
2023-05-19T22:42:12.012Z,27.76
2023-05-19T22:44:42.652Z,27.74
2023-05-19T22:47:15.401Z,27.71
2023-05-19T22:49:46.420Z,27.66
2023-05-19T22:52:17.633Z,27.63
2023-05-19T22:54:48.718Z,27.61
2023-05-19T22:57:20.401Z,27.60
2023-05-19T22:59:50.796Z,27.59
2023-05-19T23:02:24.495Z,27.59
2023-05-19T23:04:55.218Z,27.60
2023-05-19T23:07:25.162Z,27.61
2023-05-19T23:09:55.370Z,27.60
2023-05-19T23:12:25.589Z,27.61
2023-05-19T23:14:57.115Z,27.62
2023-05-19T23:17:28.786Z,27.62
2023-05-19T23:19:59.174Z,27.61
2023-05-19T23:22:30.843Z,27.59
2023-05-19T23:25:02.326Z,27.58
2023-05-19T23:27:32.773Z,27.57
2023-05-19T23:30:03.911Z,27.57
2023-05-19T23:32:36.630Z,27.57
2023-05-19T23:35:16.234Z,27.58
2023-05-19T23:37:47.330Z,27.58
2023-05-19T23:40:18.161Z,27.59
2023-05-19T23:42:48.790Z,27.60
2023-05-19T23:45:19.510Z,27.60
2023-05-19T23:47:52.057Z,27.59
2023-05-19T23:50:22.065Z,27.58
2023-05-19T23:52:53.174Z,27.56
2023-05-19T23:55:25.175Z,27.56
2023-05-19T23:57:55.324Z,27.57
